Time;durP1;ratioP1;P1;durP2;ratioP2;P2;SDS_P1;SDS_P2;PMS_P1;PMS_P2;Temp;Humidity;BMP_temperature;BMP_pressure;BME280_temperature;BME280_humidity;BME280_pressure;Samples;Min_cycle;Max_cycle;Signal;HPM_P1;HPM_P2
2022/11/27 00:01:31;;;;;;;1.33;0.65;;;10.90;99.90;;;;;;5026516;28;20370;-62
2022/11/27 00:03:58;;;;;;;0.85;0.50;;;10.90;99.90;;;;;;5022593;28;20382;-61
2022/11/27 00:06:28;;;;;;;1.30;0.75;;;10.80;99.90;;;;;;5015896;28;20053;-62
2022/11/27 00:08:57;;;;;;;2.55;0.70;;;10.90;99.90;;;;;;5033908;28;20052;-62
2022/11/27 00:11:27;;;;;;;1.17;0.60;;;10.80;99.90;;;;;;5029510;28;20045;-61
2022/11/27 00:13:55;;;;;;;2.10;0.55;;;10.90;99.90;;;;;;5032375;28;20052;-62
2022/11/27 00:16:23;;;;;;;1.80;0.60;;;10.90;99.90;;;;;;5009821;28;20046;-62
2022/11/27 00:18:51;;;;;;;0.43;0.40;;;10.90;99.90;;;;;;5014562;28;20500;-62
2022/11/27 00:21:24;;;;;;;1.05;0.50;;;10.90;99.90;;;;;;5024617;28;20046;-62
2022/11/27 00:23:53;;;;;;;1.35;0.77;;;10.90;99.90;;;;;;5015166;28;20049;-62
2022/11/27 00:26:21;;;;;;;1.98;0.70;;;10.90;99.90;;;;;;5027320;28;20045;-62
2022/11/27 00:28:49;;;;;;;2.10;0.80;;;10.90;99.90;;;;;;5028943;28;20481;-69
2022/11/27 00:31:22;;;;;;;1.38;1.05;;;10.90;99.90;;;;;;5027986;28;20049;-62
2022/11/27 00:33:53;;;;;;;1.75;0.90;;;10.90;99.90;;;;;;5029867;28;20056;-70
2022/11/27 00:36:21;;;;;;;0.93;0.52;;;10.90;99.90;;;;;;5035270;28;20053;-68
2022/11/27 00:38:49;;;;;;;1.27;0.82;;;10.90;99.90;;;;;;5037380;28;20546;-68
2022/11/27 00:41:22;;;;;;;3.38;0.90;;;10.90;99.90;;;;;;5018711;28;20057;-73
2022/11/27 00:43:50;;;;;;;2.35;1.10;;;11.00;99.90;;;;;;5022225;28;20036;-77
2022/11/27 00:46:24;;;;;;;1.40;0.80;;;11.00;99.90;;;;;;5048664;28;20056;-62
2022/11/27 00:48:57;;;;;;;1.10;0.80;;;11.00;99.90;;;;;;5030519;28;20049;-61
2022/11/27 00:51:25;;;;;;;2.23;0.80;;;11.00;99.90;;;;;;5026931;28;20053;-62
2022/11/27 00:53:53;;;;;;;2.47;0.93;;;11.00;99.90;;;;;;5031782;28;20044;-62
2022/11/27 00:56:26;;;;;;;3.10;1.50;;;11.00;99.90;;;;;;5048421;28;20064;-75
2022/11/27 00:58:55;;;;;;;1.10;1.00;;;11.00;99.90;;;;;;5036550;28;20053;-62
2022/11/27 01:01:28;;;;;;;1.40;1.15;;;11.00;99.90;;;;;;5018585;28;20053;-62
2022/11/27 01:03:58;;;;;;;1.80;1.60;;;11.00;99.90;;;;;;5012376;28;20041;-64
2022/11/27 01:06:27;;;;;;;1.58;1.40;;;11.00;99.90;;;;;;5009484;28;20392;-62
2022/11/27 01:08:55;;;;;;;1.58;1.48;;;11.00;99.90;;;;;;5031104;28;20489;-68
2022/11/27 01:11:27;;;;;;;2.00;1.80;;;11.00;99.90;;;;;;5026784;28;20042;-77
2022/11/27 01:13:57;;;;;;;1.80;0.98;;;11.00;99.90;;;;;;5032604;28;20052;-80
2022/11/27 01:16:26;;;;;;;2.75;1.00;;;11.00;99.90;;;;;;5027561;28;20041;-66
2022/11/27 01:18:56;;;;;;;2.08;1.38;;;11.00;99.90;;;;;;5022450;28;20045;-68
2022/11/27 01:21:25;;;;;;;;;;;11.00;99.90;;;;;;5016112;28;20519;-67
2022/11/27 01:23:53;;;;;;;2.70;1.70;;;11.00;99.90;;;;;;5032044;28;19920;-61
2022/11/27 01:26:21;;;;;;;1.20;1.10;;;11.00;99.90;;;;;;5047723;28;20060;-62
2022/11/27 01:28:56;;;;;;;1.70;1.48;;;11.00;99.90;;;;;;5040517;28;20473;-62
2022/11/27 01:31:28;;;;;;;4.32;1.90;;;11.00;99.90;;;;;;5008388;28;20056;-61
2022/11/27 01:34:02;;;;;;;3.22;2.10;;;11.00;99.90;;;;;;5009676;28;20073;-61
2022/11/27 01:36:30;;;;;;;2.08;1.70;;;11.00;99.90;;;;;;5014820;28;20045;-61
2022/11/27 01:38:58;;;;;;;6.18;2.22;;;11.00;99.90;;;;;;5030004;28;20045;-68
2022/11/27 01:41:35;;;;;;;3.72;2.15;;;11.00;99.90;;;;;;5022549;28;20045;-68
2022/11/27 01:44:23;;;;;;;3.38;1.58;;;11.00;99.90;;;;;;5025101;28;20397;-80
2022/11/27 01:46:58;;;;;;;2.47;1.73;;;11.00;99.90;;;;;;5027473;28;20045;-86
2022/11/27 01:49:58;;;;;;;2.67;1.75;;;11.00;99.90;;;;;;5021660;28;20046;-79
2022/11/27 01:52:35;;;;;;;4.22;2.15;;;11.00;99.90;;;;;;5013934;28;20045;-74
2022/11/27 01:55:39;;;;;;;5.47;3.00;;;11.00;99.90;;;;;;5024520;28;20061;-64
2022/11/27 01:58:09;;;;;;;4.45;3.65;;;11.00;99.90;;;;;;5017242;28;20049;-68
2022/11/27 02:00:40;;;;;;;5.32;3.17;;;11.00;99.90;;;;;;5028638;28;20037;-66
2022/11/27 02:03:08;;;;;;;3.28;1.77;;;11.00;99.90;;;;;;5032002;28;20080;-65
2022/11/27 02:05:36;;;;;;;3.00;2.40;;;11.00;99.90;;;;;;5030514;28;20041;-64
2022/11/27 02:08:10;;;;;;;4.45;2.83;;;11.00;99.90;;;;;;5036938;28;20378;-63
2022/11/27 02:10:57;;;;;;;5.47;2.85;;;11.00;99.90;;;;;;5017710;28;20042;-69
2022/11/27 02:13:47;;;;;;;4.15;2.65;;;11.00;99.90;;;;;;5062128;28;20045;-63
2022/11/27 02:16:49;;;;;;;5.30;2.35;;;11.00;99.90;;;;;;5031342;28;20049;-64
2022/11/27 02:19:26;;;;;;;4.60;2.90;;;11.00;99.90;;;;;;5024586;28;20053;-64
2022/11/27 02:22:06;;;;;;;4.45;2.85;;;11.00;99.90;;;;;;5021987;28;20050;-63
2022/11/27 02:24:45;;;;;;;;;;;11.00;99.90;;;;;;5030522;28;20113;-63
2022/11/27 02:27:24;;;;;;;3.10;1.97;;;11.00;99.90;;;;;;5049863;28;19928;-66
2022/11/27 02:29:56;;;;;;;4.75;2.00;;;10.90;99.90;;;;;;5030730;28;20056;-63
2022/11/27 02:32:52;;;;;;;4.80;2.30;;;10.90;99.90;;;;;;5025959;28;20057;-63
2022/11/27 02:35:25;;;;;;;6.63;2.65;;;10.90;99.90;;;;;;5030305;28;20053;-63
2022/11/27 02:37:58;;;;;;;6.32;2.42;;;10.90;99.90;;;;;;5044967;28;20113;-63
2022/11/27 02:40:48;;;;;;;2.95;1.95;;;10.90;99.90;;;;;;5034224;28;20053;-63
2022/11/27 02:43:47;;;;;;;5.03;2.30;;;10.90;99.90;;;;;;4997581;28;20054;-62
2022/11/27 02:46:17;;;;;;;8.95;1.70;;;10.90;99.90;;;;;;5011773;28;20042;-63
2022/11/27 02:48:54;;;;;;;;;;;10.90;99.90;;;;;;5014531;28;20060;-65
2022/11/27 02:51:30;;;;;;;6.72;1.80;;;10.90;99.90;;;;;;5024912;28;19944;-63
2022/11/27 02:54:02;;;;;;;5.60;1.77;;;10.90;99.90;;;;;;5013650;28;20050;-76
2022/11/27 02:56:30;;;;;;;5.68;1.88;;;10.90;99.90;;;;;;5021231;28;20404;-62
2022/11/27 02:59:02;;;;;;;3.13;1.90;;;10.90;99.90;;;;;;5033269;28;20053;-63
2022/11/27 03:01:35;;;;;;;7.55;2.08;;;10.90;99.90;;;;;;5064413;28;20049;-69
2022/11/27 03:04:07;;;;;;;7.30;1.55;;;10.80;99.90;;;;;;5033728;28;20045;-63
2022/11/27 03:06:52;;;;;;;6.05;1.60;;;10.80;99.90;;;;;;5036552;28;20396;-62
2022/11/27 03:09:48;;;;;;;9.25;1.40;;;10.80;99.90;;;;;;5053435;28;20040;-63
2022/11/27 03:12:17;;;;;;;10.18;1.65;;;10.70;99.90;;;;;;5039869;28;20064;-63
2022/11/27 03:14:46;;;;;;;13.37;1.97;;;10.80;99.90;;;;;;5032136;28;20054;-63
2022/11/27 03:17:50;;;;;;;14.10;1.98;;;10.80;99.90;;;;;;5031932;28;20045;-63
2022/11/27 03:20:35;;;;;;;16.70;2.22;;;10.70;99.90;;;;;;5028840;28;20061;-63
2022/11/27 03:23:03;;;;;;;22.35;2.85;;;10.70;99.90;;;;;;5013201;28;20053;-62
2022/11/27 03:25:30;;;;;;;29.27;2.25;;;10.70;99.90;;;;;;5013576;28;20052;-62
2022/11/27 03:28:01;;;;;;;21.90;2.92;;;10.70;99.90;;;;;;5013614;28;20045;-63
2022/11/27 03:30:29;;;;;;;26.38;2.42;;;10.70;99.90;;;;;;5013624;28;20046;-63
2022/11/27 03:32:57;;;;;;;23.38;2.85;;;10.60;99.90;;;;;;5019636;28;20611;-70
2022/11/27 03:35:26;;;;;;;18.20;3.38;;;10.60;99.90;;;;;;5033395;28;20053;-88
2022/11/27 03:37:55;;;;;;;18.33;2.70;;;10.60;99.90;;;;;;5048039;28;20455;-78
2022/11/27 03:40:55;;;;;;;30.88;2.80;;;10.60;99.90;;;;;;5053596;28;20045;-75
2022/11/27 03:43:26;;;;;;;31.13;3.42;;;10.60;99.90;;;;;;5013679;28;20347;-74
2022/11/27 03:45:58;;;;;;;32.25;3.30;;;10.60;99.90;;;;;;5013780;28;20382;-71
2022/11/27 03:48:42;;;;;;;30.70;4.25;;;10.60;99.90;;;;;;5022460;28;20366;-84
2022/11/27 03:51:37;;;;;;;31.15;4.97;;;10.50;99.90;;;;;;5029816;28;20057;-88
2022/11/27 03:54:44;;;;;;;33.30;3.67;;;10.50;99.90;;;;;;5012858;28;20045;-63
2022/11/27 03:57:20;;;;;;;20.40;3.22;;;10.50;99.90;;;;;;5011204;28;20054;-78
2022/11/27 03:59:51;;;;;;;36.00;4.97;;;10.50;99.90;;;;;;5013233;28;20049;-88
2022/11/27 04:02:39;;;;;;;35.50;4.90;;;10.50;99.90;;;;;;5022667;28;20045;-83
2022/11/27 04:05:07;;;;;;;27.50;3.50;;;10.40;99.90;;;;;;5032630;28;20053;-66
2022/11/27 04:07:34;;;;;;;27.98;3.05;;;10.40;99.90;;;;;;5044878;28;20040;-87
2022/11/27 04:10:03;;;;;;;26.60;3.70;;;10.40;99.90;;;;;;5052056;28;20052;-88
2022/11/27 04:12:31;;;;;;;22.35;3.75;;;10.40;99.90;;;;;;5039708;28;20052;-85
2022/11/27 04:14:59;;;;;;;38.40;5.32;;;10.30;99.90;;;;;;5032786;28;20401;-84
2022/11/27 04:17:27;;;;;;;17.33;3.03;;;10.40;99.90;;;;;;5032880;28;20045;-82
2022/11/27 04:19:54;;;;;;;30.50;3.85;;;10.40;99.90;;;;;;5047669;28;20064;-78
2022/11/27 04:22:22;;;;;;;30.48;3.38;;;10.30;99.90;;;;;;5031185;28;20049;-83
2022/11/27 04:24:50;;;;;;;37.55;3.50;;;10.40;99.90;;;;;;5032489;28;20056;-80
2022/11/27 04:27:17;;;;;;;37.35;5.10;;;10.40;99.90;;;;;;5032775;28;20041;-82
2022/11/27 04:29:45;;;;;;;30.35;5.40;;;10.40;99.90;;;;;;5032793;28;20056;-83
2022/11/27 04:32:13;;;;;;;45.15;5.18;;;10.40;99.90;;;;;;5032306;28;20064;-66
2022/11/27 04:34:40;;;;;;;26.27;3.40;;;10.30;99.90;;;;;;5033016;28;20053;-71
2022/11/27 04:37:08;;;;;;;33.15;3.85;;;10.30;99.90;;;;;;5040747;28;20060;-63
2022/11/27 04:39:36;;;;;;;33.88;4.75;;;10.30;99.90;;;;;;5051744;28;20041;-62
2022/11/27 04:42:03;;;;;;;39.30;4.22;;;10.30;99.90;;;;;;5036489;28;20104;-63
2022/11/27 04:44:31;;;;;;;35.22;5.25;;;10.30;99.90;;;;;;5012435;28;20418;-63
2022/11/27 04:46:58;;;;;;;28.67;3.55;;;10.20;99.90;;;;;;5011918;28;20049;-64
2022/11/27 04:49:26;;;;;;;36.30;4.05;;;10.20;99.90;;;;;;5012042;28;20057;-62
2022/11/27 04:51:53;;;;;;;29.77;3.78;;;10.20;99.90;;;;;;5011851;28;20046;-63
2022/11/27 04:54:21;;;;;;;34.92;4.95;;;;;;;;;;5011792;28;20046;-62
2022/11/27 04:56:49;;;;;;;24.92;3.80;;;10.20;99.90;;;;;;5010691;28;20049;-62
2022/11/27 04:59:16;;;;;;;28.00;4.32;;;10.10;99.90;;;;;;5011893;28;20052;-62
2022/11/27 05:01:44;;;;;;;37.30;4.55;;;10.10;99.90;;;;;;5014396;28;20045;-62
2022/11/27 05:04:11;;;;;;;31.88;4.10;;;10.10;99.90;;;;;;5030897;28;20049;-63
2022/11/27 05:06:39;;;;;;;39.42;5.35;;;10.10;99.90;;;;;;5036230;28;20405;-63
2022/11/27 05:09:07;;;;;;;39.83;5.05;;;10.10;99.90;;;;;;5051461;28;20045;-63
2022/11/27 05:11:34;;;;;;;40.95;5.35;;;10.10;99.90;;;;;;5048638;28;20044;-62
2022/11/27 05:14:15;;;;;;;49.90;5.68;;;10.10;99.90;;;;;;5029406;28;20056;-64
2022/11/27 05:16:52;;;;;;;36.40;4.50;;;10.00;99.90;;;;;;5017892;28;20045;-63
2022/11/27 05:19:22;;;;;;;26.90;4.88;;;10.00;99.90;;;;;;5011050;28;20053;-62
2022/11/27 05:21:51;;;;;;;28.67;4.88;;;10.00;99.90;;;;;;5010680;28;20061;-63
2022/11/27 05:24:20;;;;;;;38.05;5.40;;;10.00;99.90;;;;;;5011486;28;20054;-63
2022/11/27 05:26:47;;;;;;;31.42;4.97;;;10.00;99.90;;;;;;5013602;28;20046;-69
2022/11/27 05:29:15;;;;;;;41.78;6.78;;;10.00;99.90;;;;;;5031612;28;20057;-63
2022/11/27 05:31:43;;;;;;;48.13;5.35;;;10.00;99.90;;;;;;5030975;28;20516;-63
2022/11/27 05:34:10;;;;;;;37.97;4.30;;;10.00;99.90;;;;;;5029999;28;20049;-68
2022/11/27 05:36:39;;;;;;;59.60;7.55;;;10.00;99.90;;;;;;5035340;28;20045;-63
2022/11/27 05:39:07;;;;;;;41.75;4.70;;;10.00;99.90;;;;;;5050874;28;20064;-63
2022/11/27 05:41:36;;;;;;;41.42;4.45;;;9.90;99.90;;;;;;5050002;28;20060;-62
2022/11/27 05:44:04;;;;;;;38.08;5.15;;;9.90;99.90;;;;;;5032551;28;20045;-63
2022/11/27 05:46:32;;;;;;;39.83;5.57;;;9.90;99.90;;;;;;5011515;28;20050;-64
2022/11/27 05:49:00;;;;;;;37.33;5.15;;;9.90;99.90;;;;;;5008059;28;20042;-64
2022/11/27 05:51:27;;;;;;;61.83;6.40;;;9.90;99.90;;;;;;5008175;28;20513;-63
2022/11/27 05:53:55;;;;;;;45.45;5.00;;;9.90;99.90;;;;;;5006434;28;20038;-63
2022/11/27 05:56:22;;;;;;;50.50;6.20;;;9.90;99.90;;;;;;5015439;28;20056;-63
2022/11/27 05:58:50;;;;;;;41.85;7.53;;;9.90;99.90;;;;;;5028113;28;20048;-75
2022/11/27 06:01:18;;;;;;;42.33;4.40;;;9.80;99.90;;;;;;5026860;28;20045;-63
2022/11/27 06:03:46;;;;;;;43.33;6.55;;;9.80;99.90;;;;;;5008333;28;20413;-63
2022/11/27 06:06:17;;;;;;;36.22;4.93;;;9.80;99.90;;;;;;5008030;28;20421;-64
2022/11/27 06:08:46;;;;;;;37.28;4.97;;;9.80;99.90;;;;;;5041408;28;20041;-72
2022/11/27 06:11:22;;;;;;;44.90;6.75;;;9.80;99.90;;;;;;5036919;28;20060;-89
2022/11/27 06:13:50;;;;;;;26.98;3.80;;;9.80;99.90;;;;;;5038586;28;20053;-86
2022/11/27 06:16:20;;;;;;;44.78;5.07;;;9.70;99.90;;;;;;5032098;28;20049;-86
2022/11/27 06:18:50;;;;;;;43.65;5.20;;;9.70;99.90;;;;;;5038256;28;20053;-78
2022/11/27 06:21:18;;;;;;;50.95;4.93;;;9.70;99.90;;;;;;5036599;28;20429;-81
2022/11/27 06:23:46;;;;;;;28.80;4.93;;;9.70;99.90;;;;;;5036573;28;20053;-64
2022/11/27 06:26:16;;;;;;;49.45;4.70;;;9.70;99.90;;;;;;5027864;28;20581;-68
2022/11/27 06:28:45;;;;;;;35.13;4.60;;;9.60;99.90;;;;;;5074881;28;20044;-66
2022/11/27 06:31:16;;;;;;;42.13;5.43;;;9.70;99.90;;;;;;5047850;28;20184;-63
2022/11/27 06:33:46;;;;;;;38.85;4.72;;;9.60;99.90;;;;;;5030546;28;20042;-65
2022/11/27 06:36:14;;;;;;;39.40;5.50;;;9.60;99.90;;;;;;5031072;28;20557;-63
2022/11/27 06:38:43;;;;;;;49.40;6.07;;;9.60;99.90;;;;;;5036532;28;20038;-64
2022/11/27 06:41:13;;;;;;;35.33;4.45;;;9.60;99.90;;;;;;5033364;28;20050;-63
2022/11/27 06:43:42;;;;;;;40.35;6.43;;;9.60;99.90;;;;;;5038603;28;20046;-70
2022/11/27 06:46:16;;;;;;;41.65;6.38;;;9.60;99.90;;;;;;5003785;28;20049;-68
2022/11/27 06:48:45;;;;;;;43.35;5.07;;;9.60;99.90;;;;;;5026453;28;20409;-69
2022/11/27 06:51:21;;;;;;;36.45;4.50;;;9.60;99.90;;;;;;5032508;28;20063;-72
2022/11/27 06:53:50;;;;;;;45.17;5.53;;;9.60;99.90;;;;;;5023064;28;20050;-67
2022/11/27 06:56:21;;;;;;;47.25;5.53;;;9.50;99.90;;;;;;5012931;28;20061;-77
2022/11/27 06:58:53;;;;;;;39.15;5.38;;;9.50;99.90;;;;;;5026369;28;20497;-73
2022/11/27 07:01:23;;;;;;;43.17;5.10;;;9.50;99.90;;;;;;5027584;28;20045;-67
2022/11/27 07:03:51;;;;;;;44.33;5.68;;;9.50;99.90;;;;;;5024742;28;20052;-71
2022/11/27 07:06:23;;;;;;;46.20;5.10;;;9.50;99.90;;;;;;5011552;28;20072;-70
2022/11/27 07:08:52;;;;;;;52.47;5.55;;;9.50;99.90;;;;;;5028729;28;20037;-62
2022/11/27 07:11:23;;;;;;;50.05;5.07;;;9.50;99.90;;;;;;5029563;28;20053;-62
2022/11/27 07:13:53;;;;;;;34.60;3.33;;;9.50;99.90;;;;;;5032316;28;20041;-65
2022/11/27 07:16:21;;;;;;;34.30;5.13;;;9.50;99.90;;;;;;5014766;28;20057;-62
2022/11/27 07:18:51;;;;;;;37.72;5.28;;;9.50;99.90;;;;;;5021854;28;20053;-65
2022/11/27 07:21:18;;;;;;;;;;;9.50;99.90;;;;;;5018871;28;20406;-61
2022/11/27 07:23:46;;;;;;;45.78;7.50;;;9.50;99.90;;;;;;5034070;28;20434;-62
2022/11/27 07:26:19;;;;;;;44.75;6.47;;;9.50;99.90;;;;;;5027919;28;20049;-61
2022/11/27 07:28:47;;;;;;;43.72;5.57;;;9.50;99.90;;;;;;5026090;28;20045;-61
2022/11/27 07:31:21;;;;;;;39.38;5.68;;;9.40;99.90;;;;;;5019830;28;20041;-62
2022/11/27 07:33:51;;;;;;;41.90;5.22;;;9.40;99.90;;;;;;5031802;28;20050;-61
2022/11/27 07:36:22;;;;;;;41.72;5.63;;;9.40;99.90;;;;;;5020517;28;20521;-62
2022/11/27 07:38:50;;;;;;;29.27;4.35;;;9.40;99.90;;;;;;5026217;28;20062;-61
2022/11/27 07:41:18;;;;;;;52.10;5.07;;;9.40;99.90;;;;;;5026603;28;20052;-61
2022/11/27 07:43:46;;;;;;;32.83;4.75;;;9.40;99.90;;;;;;5028977;28;20501;-61
2022/11/27 07:46:17;;;;;;;50.63;5.68;;;9.40;99.90;;;;;;5024232;28;20046;-63
2022/11/27 07:48:45;;;;;;;43.47;5.65;;;9.40;99.90;;;;;;5021567;28;20064;-62
2022/11/27 07:51:16;;;;;;;42.22;5.32;;;9.40;99.90;;;;;;5027933;28;20045;-61
2022/11/27 07:53:44;;;;;;;40.95;4.97;;;9.40;99.90;;;;;;5009904;28;20042;-61
2022/11/27 07:56:13;;;;;;;42.35;4.93;;;9.40;99.90;;;;;;5008201;28;20042;-61
2022/11/27 07:58:41;;;;;;;51.47;6.13;;;9.50;99.90;;;;;;5008483;28;20034;-62
2022/11/27 08:01:15;;;;;;;36.70;5.30;;;9.50;99.90;;;;;;5010632;28;20061;-61
2022/11/27 08:03:43;;;;;;;39.50;6.25;;;9.50;99.90;;;;;;5028097;28;20061;-67
2022/11/27 08:06:20;;;;;;;46.42;5.60;;;9.50;99.90;;;;;;5035156;28;20053;-61
2022/11/27 08:08:48;;;;;;;36.08;4.57;;;9.50;99.90;;;;;;5015449;28;20390;-61
2022/11/27 08:11:23;;;;;;;39.45;4.53;;;9.50;99.90;;;;;;5013352;28;20046;-71
2022/11/27 08:13:59;;;;;;;31.90;4.72;;;9.50;99.90;;;;;;5036754;28;20045;-62
2022/11/27 08:16:28;;;;;;;32.03;5.63;;;9.50;99.90;;;;;;5029045;28;20053;-64
2022/11/27 08:18:56;;;;;;;36.85;3.80;;;9.50;99.90;;;;;;5027359;28;20049;-62
2022/11/27 08:21:24;;;;;;;48.72;4.20;;;9.50;99.90;;;;;;5011654;28;20065;-62
2022/11/27 08:23:51;;;;;;;42.20;4.13;;;9.40;99.90;;;;;;5032724;28;20037;-62
2022/11/27 08:26:20;;;;;;;39.35;5.22;;;9.40;99.90;;;;;;5015755;28;20042;-61
2022/11/27 08:28:50;;;;;;;40.90;5.95;;;9.40;99.90;;;;;;5015902;28;20397;-63
2022/11/27 08:31:19;;;;;;;33.53;4.88;;;9.40;99.90;;;;;;5014014;28;20053;-62
2022/11/27 08:33:47;;;;;;;33.65;5.47;;;9.40;99.90;;;;;;5028296;28;20049;-62
2022/11/27 08:36:15;;;;;;;48.83;4.80;;;9.40;99.90;;;;;;5024229;28;20409;-61
2022/11/27 08:38:45;;;;;;;35.40;5.10;;;9.40;99.90;;;;;;5024328;28;20052;-61
2022/11/27 08:41:13;;;;;;;35.30;5.05;;;9.40;99.90;;;;;;5026490;28;20049;-61
2022/11/27 08:43:41;;;;;;;31.17;3.60;;;9.40;99.90;;;;;;5028596;28;20045;-68
2022/11/27 08:46:09;;;;;;;34.08;5.85;;;9.40;99.90;;;;;;5039605;28;20052;-62
2022/11/27 08:48:37;;;;;;;36.05;4.97;;;9.40;99.90;;;;;;5045359;28;20041;-63
2022/11/27 08:51:07;;;;;;;37.63;6.40;;;9.30;99.90;;;;;;5029396;28;20063;-61
2022/11/27 08:53:36;;;;;;;35.35;3.80;;;;;;;;;;5048991;28;20057;-62
2022/11/27 08:56:06;;;;;;;34.10;4.40;;;9.30;99.90;;;;;;5065866;28;20053;-61
2022/11/27 08:58:34;;;;;;;35.33;5.22;;;9.30;99.90;;;;;;5050451;28;20291;-62
2022/11/27 09:01:17;;;;;;;43.13;4.90;;;9.30;99.90;;;;;;5038397;28;20390;-68
2022/11/27 09:03:46;;;;;;;40.38;6.28;;;9.30;99.90;;;;;;5033225;28;20397;-68
2022/11/27 09:06:17;;;;;;;31.35;5.20;;;9.30;99.90;;;;;;5026199;28;20045;-62
2022/11/27 09:08:45;;;;;;;46.53;6.45;;;9.30;99.90;;;;;;5031814;28;20045;-61
2022/11/27 09:11:14;;;;;;;26.05;3.90;;;9.30;99.90;;;;;;5022035;28;20057;-61
2022/11/27 09:13:43;;;;;;;29.73;4.57;;;9.30;99.90;;;;;;5029300;28;20082;-78
2022/11/27 09:16:16;;;;;;;33.85;5.15;;;9.30;99.90;;;;;;5026734;28;20064;-73
2022/11/27 09:18:45;;;;;;;33.78;6.05;;;9.30;99.90;;;;;;5024985;28;20056;-62
2022/11/27 09:21:14;;;;;;;32.67;4.03;;;9.30;99.90;;;;;;5012680;28;20058;-67
2022/11/27 09:23:42;;;;;;;40.00;5.80;;;9.30;99.90;;;;;;5027913;28;20393;-62
2022/11/27 09:26:13;;;;;;;42.97;5.82;;;9.30;99.90;;;;;;5030592;28;20038;-81
2022/11/27 09:28:41;;;;;;;42.05;4.80;;;9.30;99.90;;;;;;5025648;28;20045;-72
2022/11/27 09:31:10;;;;;;;35.42;4.55;;;9.40;99.90;;;;;;5025169;28;20057;-78
2022/11/27 09:33:40;;;;;;;28.58;6.07;;;9.30;99.90;;;;;;5059744;28;20041;-73
2022/11/27 09:36:13;;;;;;;30.05;3.53;;;9.40;99.90;;;;;;5011567;28;20388;-64
2022/11/27 09:38:41;;;;;;;37.65;4.47;;;9.40;99.90;;;;;;5021773;28;20064;-63
2022/11/27 09:41:26;;;;;;;35.67;5.15;;;9.40;99.90;;;;;;5027053;28;20049;-66
2022/11/27 09:43:59;;;;;;;43.38;5.38;;;9.40;99.90;;;;;;5026594;28;20050;-64
2022/11/27 09:46:40;;;;;;;33.42;4.50;;;9.40;99.90;;;;;;5028240;28;20064;-64
2022/11/27 09:49:21;;;;;;;36.65;4.68;;;9.50;99.90;;;;;;5028319;28;20038;-64
2022/11/27 09:51:52;;;;;;;31.55;4.82;;;9.50;99.90;;;;;;5010661;28;20050;-64
2022/11/27 09:54:29;;;;;;;40.85;5.00;;;9.50;99.90;;;;;;5032675;28;20045;-71
2022/11/27 09:56:57;;;;;;;39.03;4.60;;;9.50;99.90;;;;;;5034463;28;20058;-69
2022/11/27 09:59:37;;;;;;;34.72;5.72;;;9.50;99.90;;;;;;5019306;28;20551;-62
2022/11/27 10:02:16;;;;;;;41.60;4.95;;;9.60;99.90;;;;;;5027535;28;20045;-64
2022/11/27 10:04:44;;;;;;;52.10;4.80;;;9.60;99.90;;;;;;5010962;28;20437;-72
2022/11/27 10:07:45;;;;;;;39.33;4.78;;;9.60;99.90;;;;;;5013774;28;20064;-62
2022/11/27 10:10:19;;;;;;;37.03;4.97;;;9.70;99.90;;;;;;5014416;28;20034;-63
2022/11/27 10:13:14;;;;;;;43.90;6.30;;;9.70;99.90;;;;;;5019888;28;20052;-62
2022/11/27 10:16:13;;;;;;;40.83;5.05;;;9.70;99.90;;;;;;5030664;28;20046;-62
2022/11/27 10:18:47;;;;;;;41.33;5.70;;;9.70;99.90;;;;;;5028810;28;20045;-62
2022/11/27 10:21:26;;;;;;;39.95;3.97;;;9.80;99.90;;;;;;5037312;28;20041;-69
2022/11/27 10:24:16;;;;;;;32.22;4.20;;;9.80;99.90;;;;;;5022578;28;20041;-62
2022/11/27 10:26:49;;;;;;;41.63;4.70;;;9.80;99.90;;;;;;5007155;28;20046;-61
2022/11/27 10:29:36;;;;;;;35.38;4.75;;;9.90;99.90;;;;;;5024298;28;20527;-69
2022/11/27 10:32:19;;;;;;;37.85;4.40;;;9.90;99.90;;;;;;5011105;28;20494;-71
2022/11/27 10:35:15;;;;;;;44.28;4.85;;;9.90;99.90;;;;;;5012226;28;20050;-62
2022/11/27 10:37:47;;;;;;;41.47;5.40;;;10.00;99.90;;;;;;5015442;28;20053;-73
2022/11/27 10:40:24;;;;;;;44.85;6.10;;;10.00;99.90;;;;;;5019094;28;20505;-62
2022/11/27 10:43:03;;;;;;;46.72;6.53;;;10.00;99.90;;;;;;5027343;28;20063;-63
2022/11/27 10:45:44;;;;;;;61.08;5.78;;;10.00;99.90;;;;;;5013523;28;20408;-63
2022/11/27 10:48:12;;;;;;;43.35;6.95;;;10.00;99.90;;;;;;5020245;28;20069;-70
2022/11/27 10:50:41;;;;;;;41.03;5.65;;;10.10;99.90;;;;;;5027625;28;20057;-63
2022/11/27 10:53:14;;;;;;;39.38;5.28;;;10.00;99.90;;;;;;5027520;28;20421;-63
2022/11/27 10:56:03;;;;;;;46.33;5.63;;;10.10;99.90;;;;;;5023900;28;20427;-61
2022/11/27 10:58:42;;;;;;;25.17;4.65;;;10.10;99.90;;;;;;5007240;28;20057;-62
2022/11/27 11:01:13;;;;;;;31.42;5.22;;;10.10;99.90;;;;;;5023648;28;20050;-61
2022/11/27 11:03:41;;;;;;;40.53;4.20;;;10.20;99.90;;;;;;5027679;28;20405;-62
2022/11/27 11:06:29;;;;;;;44.00;6.80;;;10.20;99.90;;;;;;5022411;28;20050;-62
2022/11/27 11:09:22;;;;;;;31.73;5.10;;;10.20;99.90;;;;;;5018471;28;20049;-62
2022/11/27 11:11:50;;;;;;;44.08;5.57;;;10.20;99.90;;;;;;5028187;28;20056;-63
2022/11/27 11:14:19;;;;;;;39.47;4.65;;;10.20;99.90;;;;;;5034931;28;20041;-62
2022/11/27 11:16:47;;;;;;;40.90;6.57;;;10.20;99.90;;;;;;5027523;28;20420;-62
2022/11/27 11:19:36;;;;;;;47.00;6.28;;;10.20;99.90;;;;;;5014322;28;20042;-63
2022/11/27 11:22:13;;;;;;;58.10;6.40;;;10.20;99.90;;;;;;5015128;28;20049;-63
2022/11/27 11:24:47;;;;;;;35.20;5.18;;;10.20;99.90;;;;;;5021305;28;20045;-67
2022/11/27 11:27:26;;;;;;;37.22;4.28;;;10.20;99.90;;;;;;5015313;28;20053;-63
2022/11/27 11:30:19;;;;;;;35.85;4.32;;;10.20;99.90;;;;;;5012564;28;20041;-62
2022/11/27 11:32:48;;;;;;;31.77;5.30;;;10.30;99.90;;;;;;5021095;28;20059;-81
2022/11/27 11:35:35;;;;;;;38.17;4.50;;;10.30;99.90;;;;;;5022669;28;20040;-63
2022/11/27 11:38:04;;;;;;;40.38;4.88;;;10.30;99.90;;;;;;5017802;28;20044;-63
2022/11/27 11:40:35;;;;;;;50.67;7.47;;;10.40;99.90;;;;;;5014119;28;20046;-63
2022/11/27 11:43:31;;;;;;;49.15;6.95;;;10.40;99.90;;;;;;5039484;28;20049;-70
2022/11/27 11:46:22;;;;;;;40.00;5.15;;;10.40;99.90;;;;;;5021210;28;20053;-71
2022/11/27 11:49:01;;;;;;;41.75;5.03;;;10.50;99.90;;;;;;5026456;28;20052;-83
2022/11/27 11:51:40;;;;;;;36.35;4.53;;;10.30;99.90;;;;;;5010821;28;20133;-63
2022/11/27 11:54:17;;;;;;;;;;;10.50;99.90;;;;;;5025358;28;20058;-75
2022/11/27 11:56:51;;;;;;;36.10;6.28;;;10.60;99.90;;;;;;5012924;28;19937;-82
2022/11/27 11:59:34;;;;;;;58.78;6.22;;;10.60;99.90;;;;;;5030144;28;20045;-74
2022/11/27 12:02:49;;;;;;;40.25;6.80;;;10.60;99.90;;;;;;5025997;28;20061;-66
2022/11/27 12:06:14;;;;;;;39.63;6.10;;;10.70;99.90;;;;;;5013519;28;20494;-79
2022/11/27 12:09:07;;;;;;;37.13;4.65;;;10.70;99.90;;;;;;5031177;28;20046;-84
2022/11/27 12:11:48;;;;;;;46.13;5.20;;;10.70;99.90;;;;;;5008342;28;20069;-80
2022/11/27 12:14:41;;;;;;;51.13;5.65;;;10.70;99.90;;;;;;5029703;28;20493;-92
2022/11/27 12:17:34;;;;;;;40.25;5.38;;;10.70;99.90;;;;;;5042179;28;20050;-90
2022/11/27 12:20:02;;;;;;;41.95;4.43;;;10.80;99.90;;;;;;5025907;28;20034;-85
2022/11/27 12:22:29;;;;;;;45.60;4.97;;;10.80;99.90;;;;;;5021832;28;20053;-76
2022/11/27 12:25:03;;;;;;;41.00;5.88;;;10.80;99.90;;;;;;5028924;28;20053;-64
2022/11/27 12:27:37;;;;;;;35.72;4.68;;;10.90;99.90;;;;;;5014893;28;20504;-63
2022/11/27 12:30:26;;;;;;;37.40;4.97;;;10.90;99.90;;;;;;5011620;28;20552;-63
2022/11/27 12:33:19;;;;;;;41.60;5.90;;;10.90;99.90;;;;;;5031767;28;20687;-71
2022/11/27 12:36:25;;;;;;;44.10;6.15;;;10.90;99.90;;;;;;5012728;28;20046;-62
2022/11/27 12:39:38;;;;;;;40.92;4.65;;;10.90;99.90;;;;;;5014049;28;20049;-75
2022/11/27 12:42:32;;;;;;;40.30;6.35;;;10.90;99.90;;;;;;5021580;28;20120;-67
2022/11/27 12:45:20;;;;;;;40.63;5.32;;;10.80;99.90;;;;;;5027221;28;20041;-67
2022/11/27 12:48:10;;;;;;;42.92;5.07;;;10.90;99.90;;;;;;5024004;28;20522;-62
2022/11/27 12:50:46;;;;;;;42.55;4.95;;;10.90;99.90;;;;;;5019200;28;20397;-69
2022/11/27 12:53:37;;;;;;;36.58;4.25;;;10.90;99.90;;;;;;5034191;28;20052;-64
2022/11/27 12:56:19;;;;;;;34.80;4.28;;;10.90;99.90;;;;;;5015511;28;20049;-62
2022/11/27 12:59:01;;;;;;;37.67;5.00;;;10.80;99.90;;;;;;5013706;28;20054;-67
2022/11/27 13:01:33;;;;;;;45.80;5.20;;;10.80;99.90;;;;;;5019942;28;20053;-67
2022/11/27 13:04:20;;;;;;;38.75;4.38;;;10.80;99.90;;;;;;5019810;28;20053;-63
2022/11/27 13:07:07;;;;;;;37.60;5.03;;;10.80;99.90;;;;;;5013410;28;20038;-63
2022/11/27 13:09:49;;;;;;;40.50;4.90;;;10.70;99.90;;;;;;5019018;28;20038;-63
2022/11/27 13:12:37;;;;;;;44.75;6.22;;;10.70;99.90;;;;;;5011785;28;20540;-68
2022/11/27 13:15:19;;;;;;;42.55;5.53;;;10.70;99.90;;;;;;5008593;28;20058;-63
2022/11/27 13:17:55;;;;;;;34.95;4.53;;;10.70;99.90;;;;;;5025394;28;20057;-63
2022/11/27 13:20:31;;;;;;;39.72;5.47;;;10.70;99.90;;;;;;5016546;28;20441;-63
2022/11/27 13:22:58;;;;;;;31.05;4.03;;;10.70;99.90;;;;;;5030913;28;20045;-63